Time;durP1;ratioP1;P1;durP2;ratioP2;P2;SDS_P1;SDS_P2;PMS_P1;PMS_P2;Temp;Humidity;BMP_temperature;BMP_pressure;BME280_temperature;BME280_humidity;BME280_pressure;Samples;Min_cycle;Max_cycle;Signal;HPM_P1;HPM_P2
2021/07/23 00:00:54;;;;;;;6.32;3.08;;;15.40;99.90;;;;;;5088918;28;20406;-85
2021/07/23 00:03:41;;;;;;;5.88;3.03;;;15.20;99.90;;;;;;5110023;28;20118;-84
2021/07/23 00:06:49;;;;;;;7.72;3.50;;;15.10;99.90;;;;;;5103456;28;20044;-85
2021/07/23 00:09:36;;;;;;;6.18;3.28;;;15.10;99.90;;;;;;5091914;28;20066;-85
2021/07/23 00:12:24;;;;;;;6.13;2.88;;;15.00;99.90;;;;;;5086780;28;20384;-84
2021/07/23 00:15:12;;;;;;;5.00;3.17;;;14.90;99.90;;;;;;5095728;28;20479;-86
2021/07/23 00:17:59;;;;;;;5.47;3.08;;;14.80;99.90;;;;;;5105170;28;20039;-85
2021/07/23 00:20:46;;;;;;;4.20;2.65;;;14.80;99.90;;;;;;5104736;28;20036;-84
2021/07/23 00:23:33;;;;;;;7.22;3.50;;;14.80;99.90;;;;;;5105764;28;20050;-84
2021/07/23 00:26:21;;;;;;;5.03;3.40;;;14.70;99.90;;;;;;5105467;27;20431;-84
2021/07/23 00:29:09;;;;;;;6.25;3.10;;;14.70;99.90;;;;;;5091114;28;20541;-85
2021/07/23 00:31:56;;;;;;;6.60;3.30;;;14.70;99.90;;;;;;5091009;28;20050;-84
2021/07/23 00:34:43;;;;;;;5.85;3.20;;;14.60;99.90;;;;;;5106356;28;20039;-84
2021/07/23 00:37:30;;;;;;;4.30;2.88;;;14.60;99.90;;;;;;5102623;28;20127;-85
2021/07/23 00:40:17;;;;;;;4.60;3.30;;;14.60;99.90;;;;;;5090012;28;20040;-83
2021/07/23 00:43:04;;;;;;;5.88;3.20;;;14.60;99.90;;;;;;5098016;28;20495;-83
2021/07/23 00:45:54;;;;;;;7.18;3.30;;;14.50;99.90;;;;;;5092993;28;20388;-84
2021/07/23 00:48:41;;;;;;;5.40;3.42;;;14.40;99.90;;;;;;5109857;28;20039;-84
2021/07/23 00:51:28;;;;;;;6.50;3.65;;;14.40;99.90;;;;;;5086825;28;20118;-84
2021/07/23 00:54:16;;;;;;;6.35;3.40;;;14.30;99.90;;;;;;5104049;28;20174;-85
2021/07/23 00:57:04;;;;;;;4.43;2.97;;;14.20;99.90;;;;;;5101661;28;20042;-85
2021/07/23 00:59:52;;;;;;;6.53;3.45;;;14.10;99.90;;;;;;5098054;28;20035;-84
2021/07/23 01:02:40;;;;;;;4.63;3.28;;;14.10;99.90;;;;;;5098367;28;20191;-84
2021/07/23 01:05:28;;;;;;;5.97;3.42;;;14.00;99.90;;;;;;5102236;28;20445;-86
2021/07/23 01:08:15;;;;;;;5.70;3.38;;;13.90;99.90;;;;;;5087340;28;20048;-83
2021/07/23 01:11:02;;;;;;;5.75;3.40;;;13.90;99.90;;;;;;5090035;28;20044;-83
2021/07/23 01:13:49;;;;;;;7.18;3.25;;;13.80;99.90;;;;;;5089440;28;20074;-84
2021/07/23 01:16:37;;;;;;;5.82;3.22;;;13.80;99.90;;;;;;5100609;22;20044;-87
2021/07/23 01:19:28;;;;;;;9.45;3.58;;;13.80;99.90;;;;;;5059005;28;20472;-84
2021/07/23 01:22:17;;;;;;;6.80;3.45;;;13.70;99.90;;;;;;5056621;28;20041;-83
2021/07/23 01:25:06;;;;;;;6.72;3.08;;;13.80;99.90;;;;;;5078853;28;20040;-85
2021/07/23 01:27:55;;;;;;;6.35;3.40;;;13.70;99.90;;;;;;5052260;28;20045;-84
2021/07/23 01:30:43;;;;;;;5.68;3.38;;;13.70;99.90;;;;;;5067296;28;20041;-85
2021/07/23 01:33:31;;;;;;;6.15;3.70;;;13.70;99.90;;;;;;5070200;28;20048;-84
2021/07/23 01:36:18;;;;;;;4.88;2.97;;;13.60;99.90;;;;;;5070159;28;20040;-87
2021/07/23 01:39:06;;;;;;;5.35;3.17;;;13.50;99.90;;;;;;5068593;28;20048;-84
2021/07/23 01:41:54;;;;;;;6.95;3.30;;;13.50;99.90;;;;;;5068042;28;20451;-86
2021/07/23 01:44:41;;;;;;;5.75;3.08;;;13.50;99.90;;;;;;5064547;28;20175;-87
2021/07/23 01:47:28;;;;;;;6.00;3.35;;;13.40;99.90;;;;;;5071872;28;20054;-87
2021/07/23 01:50:15;;;;;;;5.30;3.22;;;14.30;99.90;;;;;;5073762;28;20104;-86
2021/07/23 01:53:04;;;;;;;7.10;3.22;;;13.30;99.90;;;;;;5077245;28;20044;-86
2021/07/23 01:55:51;;;;;;;6.30;3.55;;;13.20;99.90;;;;;;5071190;28;20052;-86
2021/07/23 01:58:40;;;;;;;6.25;3.42;;;13.20;99.90;;;;;;5068779;28;20179;-87
2021/07/23 02:01:27;;;;;;;5.45;3.20;;;13.10;99.90;;;;;;5070475;28;20518;-86
2021/07/23 02:04:14;;;;;;;7.28;3.60;;;13.10;99.90;;;;;;5069826;28;20052;-85
2021/07/23 02:07:01;;;;;;;5.95;3.60;;;13.10;99.90;;;;;;5078503;28;20048;-88
2021/07/23 02:09:49;;;;;;;6.85;3.85;;;13.10;99.90;;;;;;5078147;28;20037;-83
2021/07/23 02:12:36;;;;;;;6.70;3.67;;;13.10;99.90;;;;;;5078165;28;20120;-86
2021/07/23 02:15:24;;;;;;;6.60;3.80;;;13.40;99.90;;;;;;5071982;28;20466;-84
2021/07/23 02:18:11;;;;;;;5.45;3.80;;;13.00;99.90;;;;;;5065900;28;20606;-86
2021/07/23 02:20:59;;;;;;;7.93;3.63;;;13.10;99.90;;;;;;5071536;28;20552;-84
2021/07/23 02:23:46;;;;;;;6.95;3.17;;;13.00;99.90;;;;;;5073342;28;20571;-85
2021/07/23 02:26:33;;;;;;;4.88;3.00;;;12.90;99.90;;;;;;5071340;28;20044;-86
2021/07/23 02:29:20;;;;;;;6.78;3.40;;;12.80;99.90;;;;;;5066603;28;20143;-88
2021/07/23 02:32:09;;;;;;;5.50;3.40;;;12.80;99.90;;;;;;5066460;28;20270;-85
2021/07/23 02:34:56;;;;;;;5.32;3.88;;;12.80;99.90;;;;;;5070355;28;20043;-84
2021/07/23 02:37:43;;;;;;;5.65;3.58;;;12.70;99.90;;;;;;5064851;28;20123;-84
2021/07/23 02:40:30;;;;;;;6.85;3.55;;;12.80;99.90;;;;;;5055663;28;20132;-86
2021/07/23 02:43:17;;;;;;;6.90;3.80;;;12.70;99.90;;;;;;5061152;28;20052;-84
2021/07/23 02:46:04;;;;;;;7.50;4.07;;;12.70;99.90;;;;;;5061829;28;20571;-87
2021/07/23 02:48:52;;;;;;;8.85;4.32;;;12.60;99.90;;;;;;5062168;28;20049;-85
2021/07/23 02:51:40;;;;;;;6.93;3.90;;;12.60;99.90;;;;;;5082141;28;20048;-85
2021/07/23 02:54:27;;;;;;;7.97;3.90;;;12.60;99.90;;;;;;5069093;28;20051;-81
2021/07/23 02:57:14;;;;;;;5.88;3.80;;;12.60;99.90;;;;;;5073730;28;20068;-85
2021/07/23 03:00:02;;;;;;;6.10;3.85;;;12.50;99.90;;;;;;5067023;28;20037;-85
2021/07/23 03:02:49;;;;;;;8.02;3.67;;;12.60;99.90;;;;;;5069768;28;20496;-86
2021/07/23 03:05:38;;;;;;;6.35;3.47;;;12.60;99.90;;;;;;5071123;28;20044;-86
2021/07/23 03:08:25;;;;;;;6.53;3.70;;;12.50;99.90;;;;;;5065421;28;20080;-86
2021/07/23 03:11:12;;;;;;;7.75;4.15;;;12.50;99.90;;;;;;5071210;28;20507;-84
2021/07/23 03:13:59;;;;;;;8.50;4.22;;;12.50;99.90;;;;;;5071625;28;20048;-86
2021/07/23 03:16:46;;;;;;;6.57;4.28;;;12.40;99.90;;;;;;5073797;28;20048;-85
2021/07/23 03:19:34;;;;;;;10.65;4.10;;;12.40;99.90;;;;;;5077507;28;20178;-83
2021/07/23 03:22:22;;;;;;;6.53;3.88;;;12.50;99.90;;;;;;5073831;28;20527;-85
2021/07/23 03:25:10;;;;;;;6.20;4.00;;;12.60;99.90;;;;;;5073208;28;20041;-86
2021/07/23 03:27:57;;;;;;;7.80;4.28;;;12.50;99.90;;;;;;5068366;28;20465;-87
2021/07/23 03:30:45;;;;;;;9.27;4.60;;;12.50;99.90;;;;;;5070763;28;20063;-85
2021/07/23 03:33:32;;;;;;;7.55;4.65;;;12.50;99.90;;;;;;5067833;28;20135;-84
2021/07/23 03:36:19;;;;;;;8.48;4.53;;;12.40;99.90;;;;;;5073267;28;20052;-87
2021/07/23 03:39:07;;;;;;;6.32;4.30;;;12.40;99.90;;;;;;5071554;28;20040;-86
2021/07/23 03:41:54;;;;;;;7.57;4.68;;;12.40;99.90;;;;;;5069781;28;20045;-86
2021/07/23 03:44:41;;;;;;;5.93;4.40;;;12.50;99.90;;;;;;5071372;28;20048;-86
2021/07/23 03:47:29;;;;;;;8.18;4.32;;;12.50;99.90;;;;;;5071331;28;20100;-85
2021/07/23 03:50:16;;;;;;;7.13;4.15;;;12.50;99.90;;;;;;5072033;28;20051;-84
2021/07/23 03:53:03;;;;;;;7.35;4.00;;;12.60;99.90;;;;;;5069787;28;20036;-85
2021/07/23 03:55:52;;;;;;;7.57;4.13;;;12.70;99.90;;;;;;5070356;28;20047;-85
2021/07/23 03:58:39;;;;;;;6.00;3.83;;;12.60;99.90;;;;;;5070538;28;20175;-84
2021/07/23 04:01:26;;;;;;;6.65;3.92;;;12.50;99.90;;;;;;5070194;28;20097;-86
2021/07/23 04:04:14;;;;;;;9.18;3.90;;;12.50;99.90;;;;;;5075764;28;20052;-87
2021/07/23 04:07:01;;;;;;;4.80;3.35;;;12.50;99.90;;;;;;5072472;28;20114;-85
2021/07/23 04:09:49;;;;;;;6.45;3.80;;;12.50;99.90;;;;;;5058157;28;20041;-86
2021/07/23 04:12:37;;;;;;;7.35;4.18;;;12.50;99.90;;;;;;5067854;28;20045;-87
2021/07/23 04:15:25;;;;;;;7.45;3.90;;;12.50;99.90;;;;;;5065355;28;20054;-83
2021/07/23 04:18:12;;;;;;;9.52;3.88;;;12.60;99.90;;;;;;5072048;28;20124;-85
2021/07/23 04:21:02;;;;;;;6.47;4.35;;;12.60;99.90;;;;;;5077259;28;20040;-86
2021/07/23 04:23:49;;;;;;;8.98;4.50;;;12.60;99.90;;;;;;5072191;28;20072;-85
2021/07/23 04:26:36;;;;;;;7.38;4.20;;;12.50;99.90;;;;;;5065975;28;20051;-87
2021/07/23 04:29:25;;;;;;;9.30;4.75;;;12.50;99.90;;;;;;5070889;28;20044;-86
2021/07/23 04:32:12;;;;;;;6.75;4.35;;;12.50;99.90;;;;;;5073080;28;20108;-84
2021/07/23 04:34:59;;;;;;;6.00;3.78;;;12.60;99.90;;;;;;5062974;28;20389;-84
2021/07/23 04:37:47;;;;;;;6.25;4.07;;;12.70;99.90;;;;;;5075885;28;20036;-84
2021/07/23 04:40:36;;;;;;;5.97;3.88;;;12.70;99.90;;;;;;5072928;28;20132;-85
2021/07/23 04:43:23;;;;;;;6.10;4.20;;;12.70;99.90;;;;;;5069021;28;20167;-84
2021/07/23 04:46:11;;;;;;;6.97;4.18;;;12.80;99.90;;;;;;5065763;28;20045;-85
2021/07/23 04:48:58;;;;;;;6.82;4.20;;;12.80;99.90;;;;;;5072722;28;20051;-86
2021/07/23 04:51:48;;;;;;;8.48;4.45;;;12.80;99.90;;;;;;5074020;28;20479;-85
2021/07/23 04:54:35;;;;;;;9.77;4.90;;;12.90;99.90;;;;;;5073716;28;20048;-84
2021/07/23 04:57:29;;;;;;;8.45;4.50;;;13.00;99.90;;;;;;5060445;28;20127;-85
2021/07/23 05:00:17;;;;;;;7.43;4.05;;;13.10;99.90;;;;;;5073310;28;20047;-85
2021/07/23 05:03:05;;;;;;;7.57;4.78;;;13.00;99.90;;;;;;5072476;28;20041;-86
2021/07/23 05:05:57;;;;;;;6.20;4.63;;;13.00;99.90;;;;;;5064113;28;20076;-86
2021/07/23 05:08:44;;;;;;;10.63;5.05;;;13.10;99.90;;;;;;5069207;28;20171;-84
2021/07/23 05:11:32;;;;;;;6.88;4.57;;;13.20;99.90;;;;;;5067487;28;20251;-87
2021/07/23 05:14:19;;;;;;;12.48;5.03;;;13.20;99.90;;;;;;5073052;28;20048;-85
2021/07/23 05:17:06;;;;;;;10.85;5.78;;;13.20;99.90;;;;;;5070544;28;20036;-85
2021/07/23 05:19:55;;;;;;;9.55;5.70;;;13.30;99.90;;;;;;5067188;28;20419;-84
2021/07/23 05:22:43;;;;;;;8.77;5.30;;;13.30;99.90;;;;;;5070033;28;20407;-86
2021/07/23 05:25:31;;;;;;;10.35;5.85;;;13.40;99.90;;;;;;5072836;28;20098;-84
2021/07/23 05:28:19;;;;;;;11.68;6.90;;;13.40;99.90;;;;;;5073214;28;20050;-87
2021/07/23 05:31:24;;;;;;;10.27;6.68;;;13.40;99.90;;;;;;5071788;28;20414;-86
2021/07/23 05:34:11;;;;;;;10.55;6.50;;;13.40;99.90;;;;;;5074952;28;20044;-86
2021/07/23 05:36:59;;;;;;;9.65;5.78;;;13.50;99.90;;;;;;5071726;28;20056;-84
2021/07/23 05:39:47;;;;;;;8.70;5.95;;;13.60;99.90;;;;;;5069590;28;20140;-84
2021/07/23 05:42:34;;;;;;;10.13;6.97;;;13.70;99.90;;;;;;5071778;28;20037;-86
2021/07/23 05:45:22;;;;;;;14.50;7.05;;;13.70;99.90;;;;;;5073838;28;20049;-85
2021/07/23 05:48:09;;;;;;;11.48;7.18;;;13.80;99.90;;;;;;5067246;28;20480;-82
2021/07/23 05:50:56;;;;;;;13.18;7.40;;;13.80;99.90;;;;;;5072072;28;20045;-85
2021/07/23 05:53:44;;;;;;;14.57;7.22;;;13.80;99.90;;;;;;5071616;28;20040;-85
2021/07/23 05:56:31;;;;;;;9.93;6.60;;;14.00;99.90;;;;;;5069598;28;20559;-84
2021/07/23 05:59:18;;;;;;;12.35;7.68;;;14.10;99.90;;;;;;5074740;28;20045;-87
2021/07/23 06:02:06;;;;;;;9.77;6.65;;;14.20;99.90;;;;;;5068825;28;20048;-86
2021/07/23 06:04:53;;;;;;;13.68;7.38;;;14.20;99.90;;;;;;5074084;28;20126;-87
2021/07/23 06:07:40;;;;;;;12.75;7.47;;;14.30;99.90;;;;;;5074307;28;20055;-86
2021/07/23 06:10:28;;;;;;;14.25;7.22;;;14.30;99.90;;;;;;5070537;28;20047;-84
2021/07/23 06:13:15;;;;;;;10.60;6.22;;;14.50;99.90;;;;;;5072513;28;20036;-86
2021/07/23 06:16:04;;;;;;;10.23;6.78;;;14.40;99.90;;;;;;5069827;28;20047;-89
2021/07/23 06:18:51;;;;;;;9.05;6.00;;;14.60;99.90;;;;;;5075840;28;20044;-89
2021/07/23 06:21:38;;;;;;;11.38;6.18;;;14.60;99.90;;;;;;5066499;28;20055;-83
2021/07/23 06:24:25;;;;;;;9.15;5.43;;;14.60;99.90;;;;;;5072808;28;20055;-85
2021/07/23 06:27:14;;;;;;;8.55;4.97;;;14.70;99.90;;;;;;5070493;28;20124;-87
2021/07/23 06:30:02;;;;;;;12.20;4.78;;;14.80;99.90;;;;;;5066393;28;20153;-81
2021/07/23 06:32:49;;;;;;;10.18;5.40;;;14.90;99.90;;;;;;5063385;28;20036;-85
2021/07/23 06:35:36;;;;;;;8.18;5.18;;;15.00;99.90;;;;;;5068240;28;20143;-87
2021/07/23 06:38:23;;;;;;;8.20;4.82;;;15.00;99.90;;;;;;5070102;28;20055;-85
2021/07/23 06:41:10;;;;;;;8.40;4.72;;;15.00;99.90;;;;;;5071773;28;20127;-81
2021/07/23 06:43:59;;;;;;;6.53;4.20;;;15.10;99.90;;;;;;5070500;28;20504;-86
2021/07/23 06:46:46;;;;;;;7.05;4.55;;;15.20;99.90;;;;;;5072794;28;20100;-83
2021/07/23 06:49:33;;;;;;;9.63;4.60;;;15.30;99.90;;;;;;5066746;28;20423;-86
2021/07/23 06:52:20;;;;;;;9.45;4.60;;;15.30;99.90;;;;;;5067586;28;20048;-87
2021/07/23 06:55:12;;;;;;;9.48;4.07;;;15.30;99.90;;;;;;5074540;28;20052;-84
2021/07/23 06:57:59;;;;;;;6.50;4.10;;;15.40;99.90;;;;;;5079184;28;20083;-87
2021/07/23 07:00:48;;;;;;;9.77;3.78;;;15.70;99.90;;;;;;5072031;28;20044;-85
2021/07/23 07:03:35;;;;;;;8.35;3.80;;;15.40;99.90;;;;;;5069046;28;20044;-87
2021/07/23 07:06:23;;;;;;;9.50;3.60;;;15.50;99.90;;;;;;5074152;28;20055;-84
2021/07/23 07:09:10;;;;;;;5.95;3.67;;;15.60;99.90;;;;;;5060541;28;20046;-90
2021/07/23 07:12:00;;;;;;;7.30;3.50;;;15.60;99.90;;;;;;5064627;28;20492;-88
2021/07/23 07:14:47;;;;;;;9.10;3.75;;;15.70;99.90;;;;;;5069819;28;20051;-84
2021/07/23 07:20:04;;;;;;;8.90;3.33;;;15.70;99.90;;;;;;5067026;28;20049;-84
2021/07/23 07:22:52;;;;;;;7.78;3.17;;;15.70;99.90;;;;;;5054815;28;20673;-83
2021/07/23 07:25:39;;;;;;;8.85;2.90;;;15.80;99.90;;;;;;5066473;28;20411;-84
2021/07/23 07:28:26;;;;;;;6.45;2.90;;;15.90;99.90;;;;;;5056401;28;20049;-85
2021/07/23 07:31:17;;;;;;;8.00;3.00;;;16.00;99.90;;;;;;5064108;28;20056;-84
2021/07/23 07:34:05;;;;;;;7.85;3.28;;;16.20;99.90;;;;;;5052829;28;20047;-85
2021/07/23 07:36:53;;;;;;;7.22;3.17;;;16.10;99.90;;;;;;5061874;28;20041;-85
2021/07/23 07:39:40;;;;;;;5.78;3.03;;;16.20;99.90;;;;;;5070698;28;20503;-84
2021/07/23 07:42:30;;;;;;;5.45;3.00;;;16.30;99.90;;;;;;5040707;28;20580;-84
2021/07/23 07:45:17;;;;;;;6.88;2.95;;;16.40;99.90;;;;;;5059965;28;20142;-83
2021/07/23 07:48:04;;;;;;;6.10;3.25;;;16.40;99.90;;;;;;5043763;28;20059;-83
2021/07/23 07:50:52;;;;;;;6.60;3.35;;;16.50;99.90;;;;;;5047487;28;20523;-84
2021/07/23 07:53:41;;;;;;;5.97;3.63;;;16.60;99.90;;;;;;5047690;28;20538;-82
2021/07/23 07:56:28;;;;;;;6.80;3.60;;;16.50;99.90;;;;;;5066204;28;20047;-85
2021/07/23 07:59:16;;;;;;;7.25;3.08;;;16.50;99.90;;;;;;5052625;28;20100;-84
2021/07/23 08:02:06;;;;;;;5.97;3.35;;;16.70;99.90;;;;;;5062468;28;20154;-83
2021/07/23 08:04:53;;;;;;;8.55;3.47;;;16.70;99.90;;;;;;5059821;28;20056;-85
2021/07/23 08:07:40;;;;;;;5.38;2.95;;;19.30;99.90;;;;;;5056475;28;20053;-84
2021/07/23 08:10:32;;;;;;;10.68;3.30;;;16.90;99.90;;;;;;5046823;28;20067;-84
2021/07/23 08:13:19;;;;;;;6.60;3.10;;;16.90;99.90;;;;;;5055201;28;20045;-83
2021/07/23 08:16:08;;;;;;;6.05;3.13;;;16.90;99.90;;;;;;5059029;28;20826;-83
2021/07/23 08:18:55;;;;;;;7.72;3.42;;;17.00;99.90;;;;;;5067600;28;20094;-82
2021/07/23 08:21:42;;;;;;;6.20;3.63;;;17.00;99.90;;;;;;5052884;28;20123;-84
2021/07/23 08:24:32;;;;;;;7.82;3.45;;;17.10;99.90;;;;;;5068958;28;20051;-83
2021/07/23 08:27:21;;;;;;;6.55;3.60;;;17.10;99.90;;;;;;5058484;28;20123;-83
2021/07/23 08:30:09;;;;;;;8.00;3.80;;;17.20;99.90;;;;;;5068863;28;20048;-82
2021/07/23 08:32:56;;;;;;;7.05;4.03;;;17.30;99.90;;;;;;5051416;28;20048;-84
2021/07/23 08:35:45;;;;;;;7.00;4.03;;;17.20;99.90;;;;;;5057582;28;20052;-83
2021/07/23 08:38:32;;;;;;;9.77;4.15;;;17.40;99.90;;;;;;5043835;28;20408;-83
2021/07/23 08:41:19;;;;;;;10.20;4.35;;;17.60;99.90;;;;;;5064965;28;20044;-83
2021/07/23 08:44:07;;;;;;;9.95;4.53;;;17.60;99.90;;;;;;5065354;28;20040;-84
2021/07/23 08:46:54;;;;;;;7.75;4.55;;;17.80;99.90;;;;;;5052157;28;20049;-84
2021/07/23 08:49:41;;;;;;;8.38;4.40;;;17.90;99.90;;;;;;5055437;28;20054;-82
2021/07/23 08:52:39;;;;;;;8.52;3.70;;;17.90;99.90;;;;;;5065958;28;20036;-84
2021/07/23 08:55:32;;;;;;;10.32;4.40;;;18.10;99.90;;;;;;5062511;28;20041;-83
2021/07/23 08:58:20;;;;;;;8.32;3.90;;;18.20;99.90;;;;;;5043789;28;20045;-84
2021/07/23 09:01:08;;;;;;;5.43;3.72;;;18.40;99.90;;;;;;5062643;28;20127;-84
2021/07/23 09:03:56;;;;;;;7.03;4.55;;;18.40;99.90;;;;;;5067133;28;20032;-84
2021/07/23 09:06:44;;;;;;;7.13;3.85;;;18.50;99.90;;;;;;5069639;28;20044;-85
2021/07/23 09:09:31;;;;;;;9.38;3.90;;;18.70;99.90;;;;;;5060974;28;20044;-85
2021/07/23 09:12:18;;;;;;;6.50;3.70;;;18.80;99.90;;;;;;5058853;28;20123;-85
2021/07/23 09:15:18;;;;;;;7.20;3.80;;;18.80;99.90;;;;;;5060436;28;20049;-85
2021/07/23 09:18:18;;;;;;;8.15;3.80;;;18.60;99.90;;;;;;5071939;28;20052;-85
2021/07/23 09:21:06;;;;;;;6.60;3.78;;;18.60;99.90;;;;;;5055001;28;20047;-83
2021/07/23 09:23:55;;;;;;;6.20;3.80;;;18.60;99.90;;;;;;5046995;28;20036;-83
2021/07/23 09:26:44;;;;;;;6.63;3.33;;;18.50;99.90;;;;;;5053160;28;20032;-85
2021/07/23 09:29:51;;;;;;;8.63;4.07;;;18.60;99.90;;;;;;5061724;28;20419;-85
2021/07/23 09:32:39;;;;;;;6.97;3.25;;;18.60;99.90;;;;;;5046362;28;20053;-84
2021/07/23 09:35:27;;;;;;;8.60;3.30;;;18.60;99.90;;;;;;5056513;28;20052;-84
2021/07/23 09:38:14;;;;;;;5.05;2.83;;;18.70;99.90;;;;;;5057698;28;20137;-84
2021/07/23 09:41:02;;;;;;;5.82;3.05;;;18.90;99.90;;;;;;5052900;28;20157;-83
2021/07/23 09:43:57;;;;;;;5.00;2.92;;;19.20;99.90;;;;;;5067944;28;20516;-85
2021/07/23 09:46:46;;;;;;;5.03;3.25;;;19.30;99.90;;;;;;5075444;28;20044;-84
2021/07/23 09:49:33;;;;;;;6.70;3.40;;;19.40;99.90;;;;;;5059569;28;20380;-85
2021/07/23 09:52:22;;;;;;;8.20;3.40;;;19.60;99.90;;;;;;5070451;28;20518;-84
2021/07/23 09:55:10;;;;;;;6.07;3.42;;;19.40;99.90;;;;;;5063041;28;20053;-85
2021/07/23 09:57:59;;;;;;;5.38;2.92;;;19.50;99.90;;;;;;5062905;28;20707;-84
2021/07/23 10:00:53;;;;;;;5.35;3.28;;;19.60;99.90;;;;;;5060660;28;20379;-85
2021/07/23 10:03:44;;;;;;;7.82;3.00;;;19.70;99.90;;;;;;5068550;28;20508;-83
2021/07/23 10:06:34;;;;;;;5.63;2.97;;;19.80;99.70;;;;;;5067360;28;20041;-84
2021/07/23 10:09:26;;;;;;;5.60;2.80;;;19.70;99.90;;;;;;5065361;28;20052;-84
2021/07/23 10:12:16;;;;;;;3.92;2.60;;;19.70;99.90;;;;;;5069501;28;20053;-84
2021/07/23 10:15:06;;;;;;;7.70;3.30;;;19.60;99.90;;;;;;5060294;28;20041;-85
2021/07/23 10:17:53;;;;;;;5.88;2.85;;;19.50;99.40;;;;;;5071618;28;20056;-85
2021/07/23 10:20:41;;;;;;;6.35;2.90;;;19.50;99.90;;;;;;5047699;28;20131;-85
2021/07/23 10:23:29;;;;;;;6.03;2.83;;;19.40;99.90;;;;;;5058334;28;20049;-84
2021/07/23 10:26:18;;;;;;;6.13;3.40;;;19.30;99.90;;;;;;5065890;28;20135;-85
2021/07/23 10:29:07;;;;;;;6.63;3.00;;;19.40;99.90;;;;;;5071272;28;20515;-83
2021/07/23 10:31:54;;;;;;;4.45;2.75;;;19.60;99.80;;;;;;5058105;28;20105;-84
2021/07/23 10:34:44;;;;;;;4.57;2.45;;;19.80;99.80;;;;;;5071922;28;20044;-83
2021/07/23 10:37:48;;;;;;;4.55;2.38;;;19.70;99.90;;;;;;5067694;28;20124;-85
2021/07/23 10:40:40;;;;;;;3.72;2.22;;;19.90;99.80;;;;;;5069445;28;20479;-86
2021/07/23 10:43:37;;;;;;;6.55;2.65;;;19.90;98.70;;;;;;5066457;28;21508;-85
2021/07/23 10:46:55;;;;;;;3.75;2.10;;;20.00;98.60;;;;;;5064794;28;20055;-86
2021/07/23 10:49:46;;;;;;;3.92;2.10;;;20.10;98.30;;;;;;5049329;28;20101;-84
2021/07/23 10:52:37;;;;;;;5.88;2.63;;;20.00;98.90;;;;;;5054065;28;20446;-85
2021/07/23 10:55:27;;;;;;;5.97;2.90;;;20.00;98.70;;;;;;5055722;28;20166;-84
2021/07/23 10:58:41;;;;;;;;;;;20.20;99.30;;;;;;5056123;28;20543;-81
2021/07/23 11:01:50;;;;;;;6.72;2.83;;;20.10;99.20;;;;;;5054371;28;19920;-83
2021/07/23 11:04:41;;;;;;;4.68;2.40;;;20.20;99.90;;;;;;5057554;28;20044;-85
2021/07/23 11:07:28;;;;;;;5.30;2.40;;;20.20;99.30;;;;;;5043147;28;20178;-83
2021/07/23 11:10:20;;;;;;;4.43;2.33;;;20.30;97.80;;;;;;5054166;28;20045;-84
2021/07/23 11:13:10;;;;;;;6.70;3.00;;;20.20;98.30;;;;;;5058276;28;20519;-84
2021/07/23 11:16:10;;;;;;;5.10;2.47;;;20.30;98.10;;;;;;5062589;28;20104;-85
2021/07/23 11:19:00;;;;;;;5.57;2.63;;;20.30;97.80;;;;;;5050783;28;20044;-84
2021/07/23 11:21:47;;;;;;;5.55;2.55;;;20.40;97.50;;;;;;5042096;28;20132;-84
2021/07/23 11:24:35;;;;;;;6.20;2.47;;;20.50;97.50;;;;;;5064634;28;20735;-84
2021/07/23 11:27:23;;;;;;;4.15;2.47;;;20.60;97.30;;;;;;5044347;28;20045;-85
2021/07/23 11:30:15;;;;;;;4.78;2.45;;;20.50;99.50;;;;;;5051614;28;20473;-85
2021/07/23 11:33:04;;;;;;;5.30;2.45;;;20.60;98.10;;;;;;5046527;28;20458;-82
2021/07/23 11:35:53;;;;;;;4.28;2.20;;;20.60;98.80;;;;;;5061985;28;20097;-84
2021/07/23 11:38:41;;;;;;;4.50;2.30;;;20.80;98.10;;;;;;5046522;28;20057;-83
2021/07/23 11:41:28;;;;;;;4.45;2.33;;;20.70;98.00;;;;;;5058956;28;20535;-82
2021/07/23 11:44:15;;;;;;;6.60;2.67;;;20.70;98.20;;;;;;5043884;28;20480;-82
2021/07/23 11:47:02;;;;;;;5.03;2.45;;;20.60;97.50;;;;;;5050246;28;20036;-84
2021/07/23 11:49:49;;;;;;;4.55;2.72;;;20.70;98.20;;;;;;5062176;28;20082;-84
2021/07/23 11:52:38;;;;;;;4.40;2.53;;;20.70;97.90;;;;;;5068845;28;20529;-84
2021/07/23 11:55:37;;;;;;;4.00;2.25;;;20.90;98.10;;;;;;5081335;28;20044;-85
2021/07/23 11:58:25;;;;;;;5.18;2.40;;;21.10;98.10;;;;;;5060952;28;20049;-85
2021/07/23 12:01:18;;;;;;;4.00;2.40;;;21.30;98.40;;;;;;5077702;28;20056;-85
2021/07/23 12:04:07;;;;;;;5.05;2.33;;;21.30;97.00;;;;;;5057575;28;20507;-84
2021/07/23 12:06:54;;;;;;;3.28;2.08;;;21.40;97.70;;;;;;5054916;28;20098;-84
2021/07/23 12:09:43;;;;;;;3.78;2.30;;;21.50;97.20;;;;;;5062489;28;20591;-83
2021/07/23 12:12:30;;;;;;;4.70;2.53;;;21.40;96.60;;;;;;5057897;28;20047;-84
2021/07/23 12:15:19;;;;;;;4.07;2.30;;;21.30;97.60;;;;;;5049834;28;20064;-83
2021/07/23 12:18:06;;;;;;;8.17;2.73;;;21.30;98.20;;;;;;5052076;28;20040;-83
2021/07/23 12:21:07;;;;;;;3.58;2.00;;;21.30;96.60;;;;;;5065334;28;20040;-85
2021/07/23 12:23:58;;;;;;;4.60;2.30;;;21.30;97.90;;;;;;5054945;28;20358;-83
2021/07/23 12:26:47;;;;;;;6.10;2.55;;;21.40;97.80;;;;;;5045590;28;20049;-83
2021/07/23 12:29:37;;;;;;;4.03;1.93;;;21.60;97.10;;;;;;5055334;28;20428;-85
2021/07/23 12:32:26;;;;;;;4.80;2.35;;;21.60;98.00;;;;;;5058185;28;20285;-85
2021/07/23 12:35:24;;;;;;;5.00;2.15;;;21.70;97.30;;;;;;5062632;28;20093;-84
2021/07/23 12:38:12;;;;;;;6.00;2.75;;;21.80;98.10;;;;;;5063023;28;20345;-85
2021/07/23 12:41:01;;;;;;;3.58;2.28;;;21.80;96.60;;;;;;5064542;28;20047;-85
2021/07/23 12:44:03;;;;;;;4.35;2.25;;;21.70;96.80;;;;;;5053229;28;20045;-84
2021/07/23 12:46:51;;;;;;;5.60;2.30;;;21.70;98.50;;;;;;5064020;28;20676;-84
2021/07/23 12:49:40;;;;;;;4.22;2.42;;;21.80;97.30;;;;;;5057628;28;20048;-84
2021/07/23 12:52:27;;;;;;;4.32;2.35;;;22.00;98.30;;;;;;5056903;28;20044;-84
2021/07/23 12:55:20;;;;;;;4.78;2.40;;;22.10;97.20;;;;;;5047997;28;20052;-83
2021/07/23 12:58:07;;;;;;;3.70;2.17;;;22.10;96.70;;;;;;5048378;28;20206;-83
2021/07/23 13:01:05;;;;;;;5.68;2.45;;;22.10;96.60;;;;;;5063967;28;20122;-84
2021/07/23 13:03:54;;;;;;;4.80;2.45;;;22.00;96.30;;;;;;5060800;28;20094;-84
2021/07/23 13:06:41;;;;;;;5.45;1.88;;;22.00;96.50;;;;;;5047368;28;20052;-81
2021/07/23 13:09:28;;;;;;;3.60;2.15;;;22.10;96.50;;;;;;5053113;28;20150;-84
2021/07/23 13:12:16;;;;;;;3.45;1.98;;;22.20;96.30;;;;;;5052775;28;20063;-83
2021/07/23 13:15:04;;;;;;;5.85;2.30;;;22.30;95.60;;;;;;5052926;28;20122;-84
2021/07/23 13:20:22;;;;;;;3.95;2.03;;;22.30;97.40;;;;;;5041580;28;20048;-84
2021/07/23 13:23:09;;;;;;;5.82;2.50;;;22.80;97.70;;;;;;5032330;28;20527;-85
2021/07/23 13:26:02;;;;;;;4.75;2.50;;;22.50;98.10;;;;;;5050569;28;20045;-85
2021/07/23 13:28:49;;;;;;;4.63;1.92;;;22.60;97.70;;;;;;5042683;28;20047;-86
2021/07/23 13:31:37;;;;;;;6.15;2.40;;;22.50;96.60;;;;;;5054628;28;20049;-84
2021/07/23 13:34:24;;;;;;;5.43;2.10;;;22.40;97.50;;;;;;5045795;28;20324;-87
2021/07/23 13:37:17;;;;;;;5.80;2.85;;;22.60;97.60;;;;;;5056027;28;20045;-86
2021/07/23 13:40:10;;;;;;;4.38;2.13;;;22.50;98.00;;;;;;5054203;28;20138;-86
2021/07/23 13:43:02;;;;;;;5.65;2.60;;;22.60;97.20;;;;;;5052212;28;20145;-87
2021/07/23 13:45:50;;;;;;;6.25;2.30;;;24.40;97.40;;;;;;5052441;28;20124;-86
2021/07/23 13:48:37;;;;;;;3.63;2.00;;;23.20;97.70;;;;;;5054931;28;20136;-85
2021/07/23 13:51:24;;;;;;;3.92;2.25;;;23.10;96.80;;;;;;5052986;28;20048;-87
2021/07/23 13:54:13;;;;;;;4.78;2.30;;;23.00;96.80;;;;;;5062151;28;20408;-86
2021/07/23 13:57:00;;;;;;;5.22;2.25;;;23.10;96.70;;;;;;5059458;28;20051;-84
2021/07/23 13:59:47;;;;;;;3.58;2.15;;;23.50;96.10;;;;;;5058070;28;20125;-88
2021/07/23 14:02:35;;;;;;;5.85;2.20;;;23.60;95.10;;;;;;5055875;28;20053;-86
2021/07/23 14:05:22;;;;;;;4.82;2.58;;;24.00;94.80;;;;;;5060761;28;20134;-86
2021/07/23 14:08:09;;;;;;;3.90;2.17;;;23.70;96.00;;;;;;5059097;28;20055;-88
2021/07/23 14:11:02;;;;;;;3.85;2.33;;;23.50;95.70;;;;;;5063408;28;20095;-85
2021/07/23 14:13:50;;;;;;;7.85;2.83;;;23.90;96.30;;;;;;5054336;28;20044;-87
2021/07/23 14:16:37;;;;;;;4.97;2.08;;;24.10;95.50;;;;;;5048720;28;20048;-85
2021/07/23 14:19:24;;;;;;;5.05;2.47;;;24.00;95.20;;;;;;5053278;28;20047;-86
2021/07/23 14:22:11;;;;;;;5.93;2.28;;;24.20;94.50;;;;;;5057521;28;20109;-85
2021/07/23 14:24:58;;;;;;;4.47;2.45;;;24.10;94.70;;;;;;5050725;28;20067;-86
2021/07/23 14:27:46;;;;;;;3.42;2.00;;;24.10;94.20;;;;;;5063174;28;20045;-85
2021/07/23 14:30:34;;;;;;;3.83;2.35;;;24.20;94.40;;;;;;5060451;28;20052;-86
2021/07/23 14:33:21;;;;;;;4.38;2.55;;;24.00;94.20;;;;;;5048682;28;20042;-84
2021/07/23 14:36:08;;;;;;;4.57;2.40;;;24.00;94.20;;;;;;5060718;28;20120;-86
2021/07/23 14:38:56;;;;;;;5.60;2.35;;;25.20;93.90;;;;;;5075966;28;20060;-87
2021/07/23 14:41:43;;;;;;;4.45;2.40;;;24.70;93.50;;;;;;5062212;28;20049;-88